createdAt,value
2022-09-20T00:01:28.550Z,10.55
2022-09-20T00:03:58.193Z,10.56
2022-09-20T00:06:27.673Z,10.56
2022-09-20T00:08:54.336Z,10.72
2022-09-20T00:11:23.781Z,10.71
2022-09-20T00:13:52.551Z,10.75
2022-09-20T00:16:22.809Z,10.63
2022-09-20T00:18:52.857Z,10.57
2022-09-20T00:21:22.184Z,10.61
2022-09-20T00:23:48.595Z,10.48
2022-09-20T00:26:15.036Z,10.31
2022-09-20T00:28:42.007Z,10.16
2022-09-20T00:31:08.559Z,10.02
2022-09-20T00:33:53.713Z,9.86
2022-09-20T00:36:20.305Z,9.70
2022-09-20T00:38:47.572Z,9.54
2022-09-20T00:41:14.140Z,9.39
2022-09-20T00:43:45.593Z,9.28
2022-09-20T00:46:36.730Z,9.17
2022-09-20T00:49:20.351Z,9.06
2022-09-20T00:51:55.900Z,8.99
2022-09-20T00:54:25.007Z,8.94
2022-09-20T00:56:51.569Z,8.85
2022-09-20T00:59:30.216Z,8.82
2022-09-20T01:02:03.666Z,8.82
2022-09-20T01:04:30.380Z,8.81
2022-09-20T01:07:00.226Z,8.83
2022-09-20T01:09:27.000Z,8.86
2022-09-20T01:11:55.964Z,8.85
2022-09-20T01:14:24.118Z,8.88
2022-09-20T01:16:53.801Z,8.90
2022-09-20T01:19:33.071Z,8.88
2022-09-20T01:22:04.109Z,8.86
2022-09-20T01:24:56.512Z,8.80
2022-09-20T01:27:50.685Z,8.70
2022-09-20T01:30:22.099Z,8.63
2022-09-20T01:33:23.757Z,8.53
2022-09-20T01:35:53.796Z,8.43
2022-09-20T01:38:51.002Z,8.34
2022-09-20T01:41:27.123Z,8.24
2022-09-20T01:44:06.493Z,8.18
2022-09-20T01:46:37.055Z,8.15
2022-09-20T01:49:22.231Z,8.15
2022-09-20T01:52:21.017Z,8.10
2022-09-20T01:55:07.321Z,8.26
2022-09-20T01:57:52.493Z,8.34
2022-09-20T02:00:30.944Z,8.83
2022-09-20T02:03:36.173Z,8.62
2022-09-20T02:06:20.765Z,8.48
2022-09-20T02:09:30.528Z,8.35
2022-09-20T02:12:18.503Z,8.38
2022-09-20T02:15:02.761Z,8.49
2022-09-20T02:17:54.024Z,8.71
2022-09-20T02:20:23.462Z,8.77
2022-09-20T02:23:28.980Z,8.97
2022-09-20T02:26:49.913Z,9.11
2022-09-20T02:29:34.479Z,9.29
2022-09-20T02:32:24.098Z,9.34
2022-09-20T02:35:29.196Z,9.43
2022-09-20T02:37:55.482Z,9.38
2022-09-20T02:40:50.790Z,9.53
2022-09-20T02:43:19.659Z,9.76
2022-09-20T02:46:03.435Z,9.87
2022-09-20T02:48:47.666Z,9.66
2022-09-20T02:51:26.019Z,9.66
2022-09-20T02:54:37.615Z,9.70
2022-09-20T02:57:15.692Z,9.49
2022-09-20T02:59:50.304Z,9.30
2022-09-20T03:02:27.132Z,9.27
2022-09-20T03:05:18.860Z,9.18
2022-09-20T03:08:10.337Z,9.07
2022-09-20T03:11:03.908Z,9.02
2022-09-20T03:13:55.082Z,9.04
2022-09-20T03:16:31.116Z,8.86
2022-09-20T03:19:22.567Z,8.71
2022-09-20T03:22:09.725Z,8.59
2022-09-20T03:25:04.741Z,8.43
2022-09-20T03:28:08.712Z,8.34
2022-09-20T03:31:24.474Z,8.20
2022-09-20T03:34:09.865Z,8.06
2022-09-20T03:37:01.045Z,7.93
2022-09-20T03:39:45.373Z,7.81
2022-09-20T03:42:18.792Z,7.74
2022-09-20T03:45:12.904Z,7.70
2022-09-20T03:48:00.144Z,7.66
2022-09-20T03:50:32.366Z,7.61
2022-09-20T03:53:32.175Z,7.52
2022-09-20T03:56:19.061Z,7.43
2022-09-20T03:59:16.949Z,7.34
2022-09-20T04:01:55.296Z,7.26
2022-09-20T04:04:58.861Z,7.21
2022-09-20T04:07:43.436Z,7.19
2022-09-20T04:10:34.802Z,7.39
2022-09-20T04:13:31.505Z,7.64
2022-09-20T04:16:27.426Z,7.72
2022-09-20T04:19:12.552Z,7.93
2022-09-20T04:21:52.307Z,8.11
2022-09-20T04:24:48.258Z,8.25
2022-09-20T04:27:28.796Z,8.46
2022-09-20T04:30:24.187Z,8.85
2022-09-20T04:33:00.821Z,8.98
2022-09-20T04:35:55.069Z,8.99
2022-09-20T04:38:21.870Z,9.15
2022-09-20T04:41:09.361Z,9.34
2022-09-20T04:43:51.037Z,9.42
2022-09-20T04:46:35.649Z,9.42
2022-09-20T04:49:18.981Z,9.41
2022-09-20T04:52:00.654Z,9.43
2022-09-20T04:55:04.338Z,9.45
2022-09-20T04:57:47.898Z,9.48
2022-09-20T05:00:19.176Z,9.54
2022-09-20T05:03:14.509Z,9.56
2022-09-20T05:05:43.885Z,9.56
2022-09-20T05:08:57.983Z,9.54
2022-09-20T05:11:42.292Z,9.54
2022-09-20T05:14:42.607Z,9.52
2022-09-20T05:17:15.159Z,9.53
2022-09-20T05:20:15.362Z,9.52
2022-09-20T05:23:09.408Z,9.52
2022-09-20T05:25:54.745Z,9.53
2022-09-20T05:28:37.162Z,9.52
2022-09-20T05:31:10.492Z,9.52
2022-09-20T05:34:03.713Z,9.56
2022-09-20T05:36:45.464Z,9.61
2022-09-20T05:39:31.686Z,9.59
2022-09-20T05:42:24.977Z,9.65
2022-09-20T05:45:01.882Z,9.64
2022-09-20T05:47:53.386Z,9.67
2022-09-20T05:50:44.943Z,9.70
2022-09-20T05:53:42.221Z,9.72
2022-09-20T05:56:34.244Z,9.78
2022-09-20T05:59:24.765Z,9.80
2022-09-20T06:02:18.349Z,9.87
2022-09-20T06:05:16.951Z,10.06
2022-09-20T06:08:27.280Z,10.44
2022-09-20T06:11:29.129Z,10.61
2022-09-20T06:14:03.974Z,10.83
2022-09-20T06:16:44.759Z,10.91
2022-09-20T06:19:21.352Z,10.93
2022-09-20T06:21:53.608Z,10.96
2022-09-20T06:24:25.125Z,10.90
2022-09-20T06:26:55.093Z,10.79
2022-09-20T06:29:34.017Z,10.70
2022-09-20T06:32:00.581Z,10.66
2022-09-20T06:34:28.754Z,10.71
2022-09-20T06:37:41.221Z,10.86
2022-09-20T06:40:40.220Z,11.05
2022-09-20T06:43:06.663Z,11.17
2022-09-20T06:45:33.048Z,11.23
2022-09-20T06:48:00.522Z,11.25
2022-09-20T06:50:27.482Z,11.25
2022-09-20T06:52:55.515Z,11.20
2022-09-20T06:55:29.405Z,11.24
2022-09-20T06:57:56.340Z,11.27
2022-09-20T07:00:23.153Z,11.29
2022-09-20T07:02:49.881Z,11.29
2022-09-20T07:05:17.845Z,11.28
2022-09-20T07:07:44.275Z,11.23
2022-09-20T07:10:15.350Z,11.18
2022-09-20T07:12:41.705Z,11.15
2022-09-20T07:15:08.701Z,11.13
2022-09-20T07:17:35.052Z,11.09
2022-09-20T07:20:01.599Z,11.06
2022-09-20T07:22:28.057Z,11.07
2022-09-20T07:24:54.916Z,11.03
2022-09-20T07:27:21.478Z,11.01
2022-09-20T07:29:47.825Z,10.98
2022-09-20T07:32:15.345Z,10.92
2022-09-20T07:34:41.771Z,10.87
2022-09-20T07:37:08.119Z,10.82
2022-09-20T07:39:34.442Z,10.80
2022-09-20T07:42:01.788Z,10.84
2022-09-20T07:44:28.233Z,10.92
2022-09-20T07:46:57.891Z,11.07
2022-09-20T07:49:25.286Z,11.21
2022-09-20T07:51:52.880Z,11.35
2022-09-20T07:54:19.969Z,11.52
2022-09-20T07:56:46.847Z,11.61
2022-09-20T07:59:14.364Z,11.63
2022-09-20T08:01:41.613Z,11.61
2022-09-20T08:04:09.236Z,11.62
2022-09-20T08:06:40.558Z,11.74
2022-09-20T08:09:11.137Z,11.84
2022-09-20T08:11:40.774Z,12.02
2022-09-20T08:14:09.073Z,12.27
2022-09-20T08:16:40.961Z,12.65
2022-09-20T08:19:07.776Z,12.58
2022-09-20T08:21:35.969Z,12.48
2022-09-20T08:24:03.854Z,12.43
2022-09-20T08:26:35.746Z,12.43
2022-09-20T08:29:02.173Z,12.50
2022-09-20T08:31:36.639Z,12.74
2022-09-20T08:34:06.442Z,13.05
2022-09-20T08:36:36.760Z,13.24
2022-09-20T08:42:02.122Z,13.22
2022-09-20T08:44:35.700Z,13.13
2022-09-20T08:47:19.188Z,13.13
2022-09-20T08:49:46.717Z,13.30
2022-09-20T08:52:20.907Z,13.45
2022-09-20T08:54:47.397Z,13.56
2022-09-20T08:57:20.303Z,13.79
2022-09-20T08:59:46.966Z,13.89
2022-09-20T09:02:18.863Z,14.06
2022-09-20T09:04:46.179Z,14.29
2022-09-20T09:07:14.508Z,14.77
2022-09-20T09:09:43.964Z,14.73
2022-09-20T09:12:23.119Z,14.82
2022-09-20T09:14:54.891Z,14.84
2022-09-20T09:17:27.535Z,14.82
2022-09-20T09:19:57.376Z,14.79
2022-09-20T09:22:25.245Z,14.73
2022-09-20T09:25:32.207Z,14.69
2022-09-20T09:28:12.562Z,14.85
2022-09-20T09:30:44.225Z,14.87
2022-09-20T09:33:19.716Z,14.91
2022-09-20T09:35:56.712Z,14.99
2022-09-20T09:38:25.703Z,15.23
2022-09-20T09:40:58.946Z,15.42
2022-09-20T09:43:30.085Z,15.42
2022-09-20T09:46:16.692Z,15.63
2022-09-20T09:48:49.410Z,15.84
2022-09-20T09:51:18.558Z,16.06
2022-09-20T09:53:46.633Z,16.04
2022-09-20T09:56:41.299Z,15.78
2022-09-20T09:59:12.627Z,15.87
2022-09-20T10:01:59.383Z,15.78
2022-09-20T10:04:47.650Z,15.72
2022-09-20T10:07:16.612Z,15.63
2022-09-20T10:10:07.960Z,15.61
2022-09-20T10:12:59.889Z,15.35
2022-09-20T10:15:49.092Z,15.45
2022-09-20T10:19:07.892Z,15.88
2022-09-20T10:21:50.889Z,16.56
2022-09-20T10:24:48.602Z,16.88
2022-09-20T10:27:42.484Z,17.63
2022-09-20T10:30:22.261Z,17.27
2022-09-20T10:33:03.555Z,16.97
2022-09-20T10:35:39.689Z,16.38
2022-09-20T10:38:22.185Z,15.85
2022-09-20T10:42:04.908Z,15.44
2022-09-20T10:44:36.960Z,15.66
2022-09-20T10:47:20.173Z,15.33
2022-09-20T10:50:05.018Z,14.96
2022-09-20T10:52:49.891Z,14.77
2022-09-20T10:55:29.429Z,14.69
2022-09-20T10:58:20.194Z,14.64
2022-09-20T11:00:58.570Z,14.82
2022-09-20T11:03:43.375Z,14.98
2022-09-20T11:06:17.699Z,15.55
2022-09-20T11:08:50.717Z,16.14
2022-09-20T11:11:21.679Z,16.64
2022-09-20T11:14:01.033Z,17.03
2022-09-20T11:16:41.823Z,17.22
2022-09-20T11:19:23.498Z,17.42
2022-09-20T11:22:16.061Z,17.45
2022-09-20T11:24:55.585Z,16.95
2022-09-20T11:27:48.221Z,16.90
2022-09-20T11:30:16.392Z,16.89
2022-09-20T11:33:07.295Z,16.88
2022-09-20T11:35:43.900Z,16.91
2022-09-20T11:38:35.326Z,17.09
2022-09-20T11:41:20.639Z,17.37
2022-09-20T11:43:48.801Z,17.39
2022-09-20T11:46:23.130Z,17.43
2022-09-20T11:48:53.155Z,17.49
2022-09-20T11:51:49.504Z,17.84
2022-09-20T11:54:38.978Z,17.99
2022-09-20T11:57:07.977Z,17.11
2022-09-20T11:59:42.098Z,17.10
2022-09-20T12:02:20.142Z,16.74
2022-09-20T12:04:49.525Z,16.60
2022-09-20T12:07:21.940Z,17.41
2022-09-20T12:10:01.243Z,18.21
2022-09-20T12:12:30.477Z,17.46
2022-09-20T12:14:59.332Z,16.83
2022-09-20T12:17:47.594Z,16.51
2022-09-20T12:20:32.603Z,16.92
2022-09-20T12:23:36.508Z,16.38
2022-09-20T12:26:07.629Z,15.99
2022-09-20T12:28:36.089Z,16.07
2022-09-20T12:31:21.280Z,16.24
2022-09-20T12:34:02.833Z,16.29
2022-09-20T12:36:36.173Z,16.15
2022-09-20T12:39:09.484Z,15.95
2022-09-20T12:41:58.063Z,15.58
2022-09-20T12:44:43.737Z,15.56
2022-09-20T12:47:10.036Z,15.57
2022-09-20T12:50:04.248Z,15.47
2022-09-20T12:52:58.424Z,15.43
2022-09-20T12:55:27.580Z,15.37
2022-09-20T12:58:01.952Z,15.35
2022-09-20T13:00:34.512Z,15.51
2022-09-20T13:03:01.852Z,15.71
2022-09-20T13:05:38.222Z,16.88
2022-09-20T13:08:25.923Z,18.58
2022-09-20T13:11:18.497Z,17.77
2022-09-20T13:13:58.031Z,17.17
2022-09-20T13:16:37.058Z,17.40
2022-09-20T13:19:07.725Z,16.85
2022-09-20T13:21:38.213Z,17.48
2022-09-20T13:24:05.934Z,16.98
2022-09-20T13:26:41.204Z,17.45
2022-09-20T13:29:09.957Z,19.94
2022-09-20T13:31:36.609Z,20.61
2022-09-20T13:34:13.351Z,21.50
2022-09-20T13:36:40.007Z,21.38
2022-09-20T13:39:08.042Z,20.93
2022-09-20T13:41:35.584Z,22.58
2022-09-20T13:44:02.260Z,23.24
2022-09-20T13:46:31.112Z,22.04
2022-09-20T13:49:15.136Z,20.44
2022-09-20T13:51:41.546Z,22.22
2022-09-20T13:54:21.662Z,22.97
2022-09-20T13:56:50.682Z,23.65
2022-09-20T13:59:19.489Z,22.77
2022-09-20T14:01:51.925Z,23.84
2022-09-20T14:04:23.021Z,23.08
2022-09-20T14:06:52.569Z,22.53
2022-09-20T14:09:35.347Z,22.96
2022-09-20T14:12:04.740Z,23.10
2022-09-20T14:14:32.022Z,23.87
2022-09-20T14:17:00.982Z,23.61
2022-09-20T14:19:31.929Z,20.25
2022-09-20T14:22:05.365Z,22.67
2022-09-20T14:24:37.128Z,23.70
2022-09-20T14:27:31.166Z,23.77
2022-09-20T14:29:58.213Z,20.71
2022-09-20T14:32:37.176Z,18.91
2022-09-20T14:35:19.016Z,21.89
2022-09-20T14:37:48.132Z,24.22
2022-09-20T14:40:20.896Z,23.69
2022-09-20T14:42:50.656Z,22.93
2022-09-20T14:45:33.873Z,22.20
2022-09-20T14:48:10.295Z,19.56
2022-09-20T14:50:46.240Z,18.28
2022-09-20T14:53:12.538Z,17.76
2022-09-20T14:55:57.108Z,17.31
2022-09-20T14:58:26.033Z,17.20
2022-09-20T15:01:01.573Z,17.12
2022-09-20T15:03:42.257Z,16.74
2022-09-20T15:06:12.971Z,16.44
2022-09-20T15:08:44.021Z,16.05
2022-09-20T15:11:14.823Z,15.78
2022-09-20T15:13:41.231Z,15.63
2022-09-20T15:16:07.648Z,15.54
2022-09-20T15:18:43.310Z,15.63
2022-09-20T15:21:13.255Z,15.77
2022-09-20T15:23:40.535Z,15.80
2022-09-20T15:26:08.783Z,15.93
2022-09-20T15:28:35.290Z,16.06
2022-09-20T15:31:01.753Z,16.07
2022-09-20T15:33:31.943Z,15.85
2022-09-20T15:35:59.237Z,15.60
2022-09-20T15:38:26.994Z,15.47
2022-09-20T15:40:54.048Z,15.32
2022-09-20T15:43:24.339Z,15.29
2022-09-20T15:45:53.464Z,15.19
2022-09-20T15:48:22.182Z,15.11
2022-09-20T15:51:06.746Z,15.17
2022-09-20T15:53:34.921Z,15.24
2022-09-20T15:56:03.656Z,15.44
2022-09-20T15:58:35.849Z,15.66
2022-09-20T16:01:07.937Z,15.74
2022-09-20T16:03:36.054Z,15.67
2022-09-20T16:06:06.177Z,15.46
2022-09-20T16:08:37.977Z,15.34
2022-09-20T16:11:06.139Z,15.26
2022-09-20T16:13:32.693Z,15.20
2022-09-20T16:16:02.411Z,15.22
2022-09-20T16:18:47.838Z,15.17
2022-09-20T16:21:17.152Z,15.04
2022-09-20T16:23:48.772Z,15.03
2022-09-20T16:26:15.406Z,14.93
2022-09-20T16:28:47.506Z,14.77
2022-09-20T16:31:29.405Z,14.61
2022-09-20T16:33:55.888Z,14.52
2022-09-20T16:36:27.486Z,14.61
2022-09-20T16:38:55.762Z,14.60
2022-09-20T16:41:26.555Z,14.61
2022-09-20T16:43:53.489Z,14.57
2022-09-20T16:46:25.046Z,14.44
2022-09-20T16:48:53.605Z,14.38
2022-09-20T16:51:22.022Z,14.34
2022-09-20T16:53:48.518Z,14.33
2022-09-20T16:56:29.591Z,14.20
2022-09-20T16:58:56.106Z,14.06
2022-09-20T17:01:23.135Z,14.00
2022-09-20T17:03:49.618Z,13.94
2022-09-20T17:06:16.844Z,13.90
2022-09-20T17:08:44.863Z,13.81
2022-09-20T17:11:23.528Z,13.79
2022-09-20T17:13:52.240Z,13.74
2022-09-20T17:16:23.851Z,13.64
2022-09-20T17:18:58.732Z,13.53
2022-09-20T17:21:26.324Z,13.46
2022-09-20T17:23:55.255Z,13.34
2022-09-20T17:26:25.228Z,13.19
2022-09-20T17:28:55.634Z,13.11
2022-09-20T17:31:30.174Z,13.04
2022-09-20T17:34:07.619Z,12.98
2022-09-20T17:36:39.119Z,12.88
2022-09-20T17:39:06.536Z,12.82
2022-09-20T17:41:33.850Z,12.77
2022-09-20T17:44:02.674Z,12.70
2022-09-20T17:46:35.360Z,12.65
2022-09-20T17:49:08.280Z,12.59
2022-09-20T17:51:38.084Z,12.51
2022-09-20T17:54:04.789Z,12.48
2022-09-20T17:56:31.574Z,12.45
2022-09-20T17:59:00.167Z,12.40
2022-09-20T18:01:28.389Z,12.36
2022-09-20T18:03:57.516Z,12.30
2022-09-20T18:06:29.069Z,12.16
2022-09-20T18:09:01.327Z,12.04
2022-09-20T18:11:35.853Z,11.98
2022-09-20T18:14:03.166Z,11.94
2022-09-20T18:16:31.014Z,11.86
2022-09-20T18:18:59.190Z,11.82
2022-09-20T18:21:27.567Z,11.83
2022-09-20T18:23:55.325Z,11.84
2022-09-20T18:26:24.095Z,11.84
2022-09-20T18:28:51.776Z,11.83
2022-09-20T18:31:18.611Z,11.82
2022-09-20T18:33:45.212Z,11.79
2022-09-20T18:36:11.538Z,11.75
2022-09-20T18:38:37.897Z,11.66
2022-09-20T18:41:04.952Z,11.59
2022-09-20T18:43:32.413Z,11.48
2022-09-20T18:45:59.305Z,11.40
2022-09-20T18:48:27.164Z,11.32
2022-09-20T18:51:01.919Z,11.21
2022-09-20T18:53:31.000Z,11.14
2022-09-20T18:56:06.151Z,11.09
2022-09-20T18:58:32.824Z,11.04
2022-09-20T19:01:04.614Z,10.99
2022-09-20T19:03:50.597Z,10.97
2022-09-20T19:06:19.931Z,10.96
2022-09-20T19:09:00.920Z,10.95
2022-09-20T19:11:37.183Z,10.93
2022-09-20T19:14:12.176Z,10.94
2022-09-20T19:16:38.631Z,10.93
2022-09-20T19:19:24.302Z,10.92
2022-09-20T19:22:23.885Z,10.92
2022-09-20T19:25:18.705Z,10.92
2022-09-20T19:27:45.381Z,10.94
2022-09-20T19:30:15.537Z,10.98
2022-09-20T19:32:43.168Z,11.01
2022-09-20T19:35:18.936Z,11.07
2022-09-20T19:38:00.446Z,11.11
2022-09-20T19:40:46.353Z,11.14
2022-09-20T19:43:15.656Z,11.17
2022-09-20T19:46:17.263Z,11.20
2022-09-20T19:48:56.407Z,11.25
2022-09-20T19:51:23.565Z,11.28
2022-09-20T19:53:50.332Z,11.30
2022-09-20T19:56:27.780Z,11.36
2022-09-20T19:58:56.089Z,11.37
2022-09-20T20:01:24.685Z,11.39
2022-09-20T20:03:55.380Z,11.41
2022-09-20T20:06:43.661Z,11.43
2022-09-20T20:09:25.849Z,11.43
2022-09-20T20:12:06.880Z,11.43
2022-09-20T20:14:45.361Z,11.46
2022-09-20T20:17:36.122Z,11.46
2022-09-20T20:20:26.248Z,11.47
2022-09-20T20:23:27.851Z,11.49
2022-09-20T20:26:03.030Z,11.48
2022-09-20T20:28:30.203Z,11.46
2022-09-20T20:31:00.031Z,11.43
2022-09-20T20:33:26.819Z,11.45
2022-09-20T20:36:01.028Z,11.42
2022-09-20T20:38:27.760Z,11.41
2022-09-20T20:41:05.077Z,11.39
2022-09-20T20:43:36.296Z,11.36
2022-09-20T20:46:04.113Z,11.30
2022-09-20T20:48:31.151Z,11.27
2022-09-20T20:51:07.913Z,11.24
2022-09-20T20:53:37.385Z,11.24
2022-09-20T20:56:09.444Z,11.13
2022-09-20T20:58:37.813Z,11.03
2022-09-20T21:01:11.824Z,10.91
2022-09-20T21:03:40.041Z,10.79
2022-09-20T21:06:06.980Z,10.66
2022-09-20T21:08:35.268Z,10.53
2022-09-20T21:11:13.192Z,10.40
2022-09-20T21:13:40.034Z,10.25
2022-09-20T21:16:11.161Z,10.16
2022-09-20T21:18:39.553Z,10.08
2022-09-20T21:21:20.213Z,10.00
2022-09-20T21:23:51.279Z,10.00
2022-09-20T21:26:17.940Z,10.01
2022-09-20T21:28:49.896Z,10.06
2022-09-20T21:31:16.865Z,10.12
2022-09-20T21:33:43.642Z,10.09
2022-09-20T21:36:12.828Z,10.15
2022-09-20T21:38:40.799Z,10.21
2022-09-20T21:41:19.911Z,10.31
2022-09-20T21:43:48.784Z,10.39
2022-09-20T21:46:17.831Z,10.45
2022-09-20T21:48:45.358Z,10.48
2022-09-20T21:51:13.913Z,10.46
2022-09-20T21:53:40.426Z,10.46
2022-09-20T21:56:09.540Z,10.48
2022-09-20T21:58:36.266Z,10.48
2022-09-20T22:01:19.046Z,10.53
2022-09-20T22:03:51.699Z,10.56
2022-09-20T22:06:23.457Z,10.61
2022-09-20T22:08:58.188Z,10.62
2022-09-20T22:11:27.068Z,10.73
2022-09-20T22:13:54.946Z,10.72
2022-09-20T22:16:30.377Z,10.74
2022-09-20T22:18:56.962Z,10.74
2022-09-20T22:21:26.586Z,10.77
2022-09-20T22:23:57.688Z,10.77
2022-09-20T22:26:26.843Z,10.78
2022-09-20T22:28:53.520Z,10.77
2022-09-20T22:31:23.025Z,10.83
2022-09-20T22:33:51.773Z,10.80
2022-09-20T22:36:21.583Z,10.79
2022-09-20T22:38:48.381Z,10.77
2022-09-20T22:41:16.676Z,10.80
2022-09-20T22:43:43.826Z,10.79
2022-09-20T22:46:15.668Z,10.78
2022-09-20T22:48:42.997Z,10.76
2022-09-20T22:51:20.656Z,10.77
2022-09-20T22:53:48.095Z,10.73
2022-09-20T22:56:21.187Z,10.70
2022-09-20T22:58:50.827Z,10.70
2022-09-20T23:01:23.838Z,10.72
2022-09-20T23:04:01.636Z,10.74
2022-09-20T23:06:39.274Z,10.77
2022-09-20T23:09:08.437Z,10.77
2022-09-20T23:11:35.687Z,10.76
2022-09-20T23:14:07.106Z,10.79
2022-09-20T23:16:37.752Z,10.81
2022-09-20T23:19:06.538Z,10.80
2022-09-20T23:21:33.802Z,10.87
2022-09-20T23:24:03.083Z,10.84
2022-09-20T23:26:31.738Z,10.83
2022-09-20T23:28:59.489Z,10.82
2022-09-20T23:31:27.605Z,10.82
2022-09-20T23:33:57.641Z,10.79
2022-09-20T23:36:26.076Z,10.75
2022-09-20T23:38:52.999Z,10.78
2022-09-20T23:41:21.774Z,10.80
2022-09-20T23:43:49.109Z,10.80
2022-09-20T23:46:17.616Z,10.79
2022-09-20T23:48:44.839Z,10.74
2022-09-20T23:51:16.144Z,10.67
2022-09-20T23:53:43.283Z,10.61
2022-09-20T23:56:11.346Z,10.53
2022-09-20T23:58:39.496Z,10.44
